createdAt,value
2022-08-16T00:00:03.274Z,19.67
2022-08-16T00:02:35.684Z,19.50
2022-08-16T00:05:05.542Z,19.67
2022-08-16T00:07:33.508Z,19.67
2022-08-16T00:10:01.081Z,19.74
2022-08-16T00:12:30.616Z,19.45
2022-08-16T00:15:00.008Z,19.69
2022-08-16T00:17:28.160Z,19.49
2022-08-16T00:19:56.528Z,19.33
2022-08-16T00:22:25.522Z,19.51
2022-08-16T00:24:56.404Z,19.61
2022-08-16T00:27:24.030Z,19.50
2022-08-16T00:30:08.423Z,19.47
2022-08-16T00:32:40.849Z,19.31
2022-08-16T00:35:15.630Z,19.53
2022-08-16T00:37:57.146Z,19.50
2022-08-16T00:40:43.816Z,19.19
2022-08-16T00:43:40.876Z,19.47
2022-08-16T00:46:34.032Z,19.47
2022-08-16T00:49:17.631Z,19.26
2022-08-16T00:51:55.071Z,19.24
2022-08-16T00:54:26.228Z,19.37
2022-08-16T00:56:59.854Z,19.36
2022-08-16T00:59:33.101Z,19.18
2022-08-16T01:02:31.417Z,19.32
2022-08-16T01:05:09.438Z,18.93
2022-08-16T01:07:50.731Z,19.26
2022-08-16T01:10:19.479Z,19.18
2022-08-16T01:12:48.105Z,18.81
2022-08-16T01:15:16.543Z,19.05
2022-08-16T01:17:47.188Z,19.06
2022-08-16T01:20:30.306Z,19.13
2022-08-16T01:23:02.494Z,19.12
2022-08-16T01:25:37.336Z,19.12
2022-08-16T01:28:19.957Z,19.08
2022-08-16T01:30:55.653Z,18.87
2022-08-16T01:33:25.577Z,19.07
2022-08-16T01:36:09.348Z,19.04
2022-08-16T01:38:47.102Z,19.05
2022-08-16T01:41:25.834Z,18.92
2022-08-16T01:44:01.124Z,18.79
2022-08-16T01:46:50.426Z,18.80
2022-08-16T01:49:43.044Z,18.61
2022-08-16T01:52:27.966Z,18.86
2022-08-16T01:55:25.074Z,18.57
2022-08-16T01:57:56.514Z,18.41
2022-08-16T02:00:28.906Z,18.68
2022-08-16T02:02:59.733Z,18.64
2022-08-16T02:05:30.338Z,18.39
2022-08-16T02:08:03.108Z,18.60
2022-08-16T02:10:34.029Z,18.39
2022-08-16T02:13:06.498Z,18.55
2022-08-16T02:15:42.374Z,18.46
2022-08-16T02:18:18.465Z,18.46
2022-08-16T02:20:52.397Z,18.20
2022-08-16T02:23:23.458Z,18.28
2022-08-16T02:25:54.009Z,18.41
2022-08-16T02:28:25.648Z,18.36
2022-08-16T02:30:57.954Z,18.38
2022-08-16T02:33:43.572Z,18.39
2022-08-16T02:36:47.873Z,18.35
2022-08-16T02:39:22.967Z,18.33
2022-08-16T02:41:53.621Z,18.34
2022-08-16T02:44:27.106Z,18.27
2022-08-16T02:46:57.230Z,18.21
2022-08-16T02:49:58.305Z,18.18
2022-08-16T02:52:25.005Z,18.16
2022-08-16T02:55:05.168Z,18.13
2022-08-16T02:57:33.580Z,18.04
2022-08-16T03:00:34.173Z,17.96
2022-08-16T03:02:56.517Z,18.12
2022-08-16T03:05:25.665Z,18.11
2022-08-16T03:07:59.837Z,18.08
2022-08-16T03:10:33.512Z,18.08
2022-08-16T03:13:04.096Z,18.12
2022-08-16T03:15:42.624Z,18.03
2022-08-16T03:18:12.706Z,18.02
2022-08-16T03:21:02.270Z,17.96
2022-08-16T03:23:35.814Z,17.99
2022-08-16T03:26:05.935Z,18.00
2022-08-16T03:28:33.666Z,17.97
2022-08-16T03:31:02.485Z,17.76
2022-08-16T03:33:31.443Z,17.77
2022-08-16T03:36:30.077Z,17.75
2022-08-16T03:38:53.797Z,17.84
2022-08-16T03:41:25.614Z,17.82
2022-08-16T03:44:00.537Z,17.81
2022-08-16T03:46:48.215Z,17.71
2022-08-16T03:49:36.515Z,17.77
2022-08-16T03:52:07.801Z,17.77
2022-08-16T03:54:37.514Z,17.82
2022-08-16T03:57:05.647Z,17.72
2022-08-16T03:59:39.714Z,17.78
2022-08-16T04:02:22.732Z,17.70
2022-08-16T04:05:04.031Z,17.47
2022-08-16T04:07:33.564Z,17.63
2022-08-16T04:10:36.225Z,17.70
2022-08-16T04:13:04.555Z,17.47
2022-08-16T04:15:35.039Z,17.56
2022-08-16T04:18:18.159Z,17.68
2022-08-16T04:20:46.852Z,17.69
2022-08-16T04:23:16.219Z,17.74
2022-08-16T04:25:46.998Z,17.52
2022-08-16T04:28:54.435Z,17.55
2022-08-16T04:31:04.230Z,17.48
2022-08-16T04:33:37.678Z,17.66
2022-08-16T04:36:20.541Z,17.58
2022-08-16T04:38:50.068Z,17.71
2022-08-16T04:41:18.294Z,17.69
2022-08-16T04:43:46.101Z,17.48
2022-08-16T04:46:29.952Z,17.63
2022-08-16T04:49:04.454Z,17.77
2022-08-16T04:51:35.954Z,17.81
2022-08-16T04:54:04.916Z,17.82
2022-08-16T04:56:34.316Z,17.85
2022-08-16T04:59:11.716Z,17.64
2022-08-16T05:01:58.856Z,17.95
2022-08-16T05:04:29.893Z,17.98
2022-08-16T05:07:00.182Z,18.02
2022-08-16T05:09:49.313Z,18.08
2022-08-16T05:12:22.108Z,18.12
2022-08-16T05:15:02.480Z,17.95
2022-08-16T05:17:35.834Z,18.19
2022-08-16T05:20:39.248Z,17.79
2022-08-16T05:22:59.415Z,18.12
2022-08-16T05:25:41.224Z,18.35
2022-08-16T05:28:18.818Z,18.47
2022-08-16T05:30:53.789Z,18.54
2022-08-16T05:33:26.004Z,18.59
2022-08-16T05:35:59.004Z,18.68
2022-08-16T05:38:39.440Z,18.70
2022-08-16T05:41:15.464Z,18.84
2022-08-16T05:43:47.795Z,18.91
2022-08-16T05:46:34.466Z,18.71
2022-08-16T05:49:10.004Z,18.70
2022-08-16T05:51:42.686Z,18.62
2022-08-16T05:54:25.043Z,19.13
2022-08-16T05:56:58.166Z,19.16
2022-08-16T05:59:30.986Z,19.28
2022-08-16T06:01:59.438Z,19.49
2022-08-16T06:04:34.904Z,19.54
2022-08-16T06:07:24.205Z,19.42
2022-08-16T06:10:00.302Z,19.64
2022-08-16T06:12:33.022Z,19.54
2022-08-16T06:15:16.699Z,19.95
2022-08-16T06:17:46.223Z,20.01
2022-08-16T06:20:23.650Z,20.03
2022-08-16T06:23:03.551Z,20.23
2022-08-16T06:25:53.443Z,20.18
2022-08-16T06:28:34.921Z,20.37
2022-08-16T06:31:12.435Z,20.52
2022-08-16T06:33:44.781Z,20.34
2022-08-16T06:36:16.977Z,20.67
2022-08-16T06:38:56.998Z,20.79
2022-08-16T06:41:39.458Z,20.86
2022-08-16T06:44:21.457Z,20.99
2022-08-16T06:46:57.149Z,20.91
2022-08-16T06:49:25.038Z,21.17
2022-08-16T06:51:52.929Z,21.23
2022-08-16T06:54:36.204Z,21.38
2022-08-16T06:57:11.586Z,21.46
2022-08-16T06:59:52.464Z,21.54
2022-08-16T07:02:33.384Z,21.66
2022-08-16T07:05:15.051Z,21.77
2022-08-16T07:07:52.453Z,21.57
2022-08-16T07:10:29.181Z,21.96
2022-08-16T07:13:03.910Z,21.99
2022-08-16T07:15:50.838Z,21.89
2022-08-16T07:18:26.830Z,22.21
2022-08-16T07:20:59.959Z,22.09
2022-08-16T07:23:38.867Z,22.42
2022-08-16T07:26:25.202Z,22.54
2022-08-16T07:28:56.686Z,22.56
2022-08-16T07:31:25.265Z,22.60
2022-08-16T07:34:10.523Z,22.67
2022-08-16T07:36:39.232Z,22.82
2022-08-16T07:39:08.897Z,22.96
2022-08-16T07:41:39.493Z,22.88
2022-08-16T07:44:16.216Z,23.05
2022-08-16T07:46:44.668Z,23.20
2022-08-16T07:49:18.495Z,23.33
2022-08-16T07:51:46.769Z,23.44
2022-08-16T07:54:21.348Z,23.53
2022-08-16T07:57:03.897Z,23.40
2022-08-16T07:59:42.941Z,23.61
2022-08-16T08:02:19.835Z,23.69
2022-08-16T08:04:55.059Z,23.67
2022-08-16T08:07:27.505Z,23.59
2022-08-16T08:09:58.517Z,23.87
2022-08-16T08:12:32.267Z,23.70
2022-08-16T08:15:11.267Z,23.86
2022-08-16T08:17:43.243Z,24.08
2022-08-16T08:20:27.912Z,24.21
2022-08-16T08:23:01.217Z,24.18
2022-08-16T08:25:54.134Z,24.26
2022-08-16T08:28:26.671Z,24.40
2022-08-16T08:31:03.873Z,24.56
2022-08-16T08:33:36.394Z,24.66
2022-08-16T08:36:21.941Z,24.57
2022-08-16T08:38:54.801Z,24.74
2022-08-16T08:41:28.364Z,24.85
2022-08-16T08:43:59.934Z,24.83
2022-08-16T08:46:28.819Z,25.02
2022-08-16T08:49:06.033Z,25.04
2022-08-16T08:51:41.406Z,24.83
2022-08-16T08:54:18.637Z,25.20
2022-08-16T08:56:53.994Z,25.28
2022-08-16T08:59:47.718Z,25.29
2022-08-16T09:02:19.595Z,25.22
2022-08-16T09:04:53.942Z,25.24
2022-08-16T09:07:26.073Z,25.24
2022-08-16T09:10:06.309Z,25.56
2022-08-16T09:12:37.827Z,25.42
2022-08-16T09:15:13.458Z,25.65
2022-08-16T09:17:51.337Z,25.58
2022-08-16T09:20:26.460Z,25.51
2022-08-16T09:22:55.338Z,25.78
2022-08-16T09:25:33.861Z,25.70
2022-08-16T09:28:09.562Z,25.99
2022-08-16T09:30:51.669Z,26.04
2022-08-16T09:33:20.520Z,26.03
2022-08-16T09:35:53.033Z,26.07
2022-08-16T09:38:31.845Z,26.15
2022-08-16T09:41:04.740Z,26.15
2022-08-16T09:43:58.403Z,26.18
2022-08-16T09:46:44.520Z,26.10
2022-08-16T09:49:16.349Z,26.36
2022-08-16T09:51:55.626Z,26.42
2022-08-16T09:54:32.450Z,26.35
2022-08-16T09:57:01.898Z,26.57
2022-08-16T09:59:38.408Z,26.61
2022-08-16T10:02:26.136Z,26.50
2022-08-16T10:05:04.900Z,26.84
2022-08-16T10:07:56.013Z,26.91
2022-08-16T10:10:30.995Z,26.70
2022-08-16T10:13:14.477Z,27.05
2022-08-16T10:15:55.511Z,26.99
2022-08-16T10:18:41.281Z,26.92
2022-08-16T10:21:12.235Z,26.99
2022-08-16T10:23:41.420Z,26.94
2022-08-16T10:27:17.072Z,27.05
2022-08-16T10:29:04.846Z,27.12
2022-08-16T10:31:44.647Z,27.01
2022-08-16T10:34:30.785Z,26.71
2022-08-16T10:37:02.298Z,26.64
2022-08-16T10:39:32.947Z,26.80
2022-08-16T10:42:13.572Z,26.83
2022-08-16T10:44:43.044Z,26.92
2022-08-16T10:47:22.743Z,26.84
2022-08-16T10:49:52.145Z,26.87
2022-08-16T10:52:20.437Z,27.09
2022-08-16T10:57:36.905Z,27.20
2022-08-16T11:00:21.487Z,27.28
2022-08-16T11:03:37.681Z,27.38
2022-08-16T11:05:59.729Z,27.65
2022-08-16T11:08:35.460Z,27.59
2022-08-16T11:11:12.900Z,27.55
2022-08-16T11:14:11.075Z,27.52
2022-08-16T11:19:26.249Z,27.51
2022-08-16T11:22:39.530Z,27.28
2022-08-16T11:24:46.077Z,27.14
2022-08-16T11:27:46.351Z,27.03
2022-08-16T11:30:19.928Z,27.10
2022-08-16T11:32:48.926Z,27.06
2022-08-16T11:35:43.512Z,27.03
2022-08-16T11:38:47.235Z,27.11
2022-08-16T11:41:04.001Z,27.07
2022-08-16T11:43:36.535Z,27.10
2022-08-16T11:46:44.276Z,26.72
2022-08-16T11:48:57.952Z,26.82
2022-08-16T11:51:26.462Z,26.78
2022-08-16T11:53:55.450Z,26.78
2022-08-16T11:56:39.657Z,27.09
2022-08-16T11:59:13.450Z,27.11
2022-08-16T12:01:55.482Z,27.13
2022-08-16T12:04:28.693Z,27.18
2022-08-16T12:06:58.294Z,26.94
2022-08-16T12:09:29.791Z,27.45
2022-08-16T12:12:02.970Z,27.49
2022-08-16T12:32:00.630Z,27.51
2022-08-16T12:34:29.855Z,27.24
2022-08-16T12:36:59.267Z,27.81
2022-08-16T12:39:29.001Z,27.78
2022-08-16T12:41:57.666Z,27.92
2022-08-16T12:44:31.306Z,27.65
2022-08-16T12:47:18.822Z,27.72
2022-08-16T12:49:47.777Z,27.44
2022-08-16T12:52:33.003Z,27.63
2022-08-16T12:55:03.794Z,27.62
2022-08-16T12:57:36.391Z,27.54
2022-08-16T13:00:26.273Z,27.37
2022-08-16T13:02:54.786Z,27.01
2022-08-16T13:05:23.508Z,27.15
2022-08-16T13:07:53.002Z,26.85
2022-08-16T13:10:37.350Z,27.03
2022-08-16T13:13:09.267Z,26.92
2022-08-16T13:15:55.547Z,26.87
2022-08-16T13:18:34.802Z,26.84
2022-08-16T13:21:06.414Z,26.82
2022-08-16T13:23:36.949Z,26.84
2022-08-16T13:26:17.307Z,26.65
2022-08-16T13:28:47.906Z,26.22
2022-08-16T13:31:17.106Z,26.29
2022-08-16T13:33:46.155Z,26.52
2022-08-16T13:36:38.801Z,26.31
2022-08-16T13:39:04.903Z,26.29
2022-08-16T13:41:33.597Z,25.96
2022-08-16T13:44:04.202Z,25.82
2022-08-16T13:46:38.782Z,26.21
2022-08-16T13:49:07.485Z,26.24
2022-08-16T13:51:35.857Z,26.07
2022-08-16T13:54:09.208Z,26.48
2022-08-16T13:56:39.664Z,26.55
2022-08-16T13:59:19.183Z,26.57
2022-08-16T14:01:54.748Z,26.73
2022-08-16T14:04:31.199Z,26.72
2022-08-16T14:07:00.316Z,26.82
2022-08-16T14:09:32.084Z,26.83
2022-08-16T14:12:04.448Z,26.49
2022-08-16T14:14:47.810Z,26.66
2022-08-16T14:17:16.924Z,26.57
2022-08-16T14:19:46.891Z,26.61
2022-08-16T14:22:30.503Z,26.68
2022-08-16T14:25:03.216Z,26.79
2022-08-16T14:27:31.480Z,26.79
2022-08-16T14:30:01.313Z,26.65
2022-08-16T14:32:34.335Z,26.77
2022-08-16T14:35:10.439Z,26.55
2022-08-16T14:37:39.397Z,26.61
2022-08-16T14:40:14.923Z,26.77
2022-08-16T14:42:44.650Z,26.87
2022-08-16T14:45:20.395Z,26.83
2022-08-16T14:47:50.735Z,26.62
2022-08-16T14:50:22.098Z,26.81
2022-08-16T14:53:08.803Z,26.88
2022-08-16T14:55:41.107Z,26.81
2022-08-16T14:58:19.121Z,26.71
2022-08-16T15:00:50.375Z,26.85
2022-08-16T15:03:22.484Z,26.83
2022-08-16T15:05:53.761Z,26.62
2022-08-16T15:08:36.805Z,26.76
2022-08-16T15:11:07.780Z,26.71
2022-08-16T15:13:36.600Z,26.64
2022-08-16T15:16:05.782Z,26.80
2022-08-16T15:18:35.140Z,26.86
2022-08-16T15:21:05.707Z,26.75
2022-08-16T15:23:41.279Z,26.57
2022-08-16T15:26:09.768Z,26.56
2022-08-16T15:28:39.119Z,26.72
2022-08-16T15:31:13.147Z,26.64
2022-08-16T15:33:50.119Z,26.73
2022-08-16T15:36:21.550Z,26.69
2022-08-16T15:39:02.876Z,26.54
2022-08-16T15:41:47.866Z,26.29
2022-08-16T15:44:23.785Z,26.28
2022-08-16T15:46:59.896Z,25.95
2022-08-16T15:49:37.979Z,25.92
2022-08-16T15:52:33.253Z,25.59
2022-08-16T15:55:23.729Z,25.64
2022-08-16T15:57:52.990Z,25.56
2022-08-16T16:00:21.976Z,25.62
2022-08-16T16:02:50.659Z,25.34
2022-08-16T16:05:20.678Z,25.52
2022-08-16T16:07:56.779Z,25.51
2022-08-16T16:10:40.027Z,25.48
2022-08-16T16:13:08.855Z,25.45
2022-08-16T16:15:40.986Z,25.41
2022-08-16T16:18:12.751Z,25.01
2022-08-16T16:20:47.539Z,25.28
2022-08-16T16:23:23.396Z,25.17
2022-08-16T16:25:51.938Z,25.08
2022-08-16T16:28:46.000Z,25.04
2022-08-16T16:31:13.375Z,25.01
2022-08-16T16:33:50.448Z,24.75
2022-08-16T16:36:24.248Z,24.71
2022-08-16T16:38:55.056Z,24.43
2022-08-16T16:41:27.176Z,24.76
2022-08-16T16:43:57.099Z,24.79
2022-08-16T16:46:40.512Z,24.79
2022-08-16T16:49:14.128Z,24.74
2022-08-16T16:51:44.961Z,24.62
2022-08-16T16:54:27.643Z,24.74
2022-08-16T16:56:58.405Z,24.68
2022-08-16T16:59:28.709Z,24.66
2022-08-16T17:02:38.608Z,24.66
2022-08-16T17:04:49.065Z,24.53
2022-08-16T17:07:17.066Z,24.49
2022-08-16T17:09:47.396Z,24.57
2022-08-16T17:12:24.411Z,24.54
2022-08-16T17:15:05.761Z,24.42
2022-08-16T17:17:36.310Z,24.33
2022-08-16T17:20:25.335Z,24.22
2022-08-16T17:22:55.994Z,24.18
2022-08-16T17:25:25.799Z,24.14
2022-08-16T17:28:51.884Z,24.07
2022-08-16T17:30:54.950Z,24.06
2022-08-16T17:33:22.429Z,23.98
2022-08-16T17:35:55.394Z,23.88
2022-08-16T17:39:27.328Z,23.83
2022-08-16T17:41:18.375Z,23.77
2022-08-16T17:43:46.005Z,23.59
2022-08-16T17:46:41.527Z,23.67
2022-08-16T17:49:04.965Z,23.56
2022-08-16T17:51:34.454Z,23.67
2022-08-16T17:54:03.676Z,23.64
2022-08-16T17:56:31.587Z,23.59
2022-08-16T17:58:59.373Z,23.56
2022-08-16T18:01:28.449Z,23.53
2022-08-16T18:04:06.742Z,23.51
2022-08-16T18:06:38.041Z,23.48
2022-08-16T18:09:07.863Z,23.45
2022-08-16T18:11:40.707Z,23.39
2022-08-16T18:14:10.900Z,23.41
2022-08-16T18:16:38.421Z,23.29
2022-08-16T18:19:06.815Z,23.21
2022-08-16T18:21:52.505Z,23.19
2022-08-16T18:24:21.477Z,23.17
2022-08-16T18:26:48.990Z,22.97
2022-08-16T18:29:18.594Z,22.93
2022-08-16T18:31:50.785Z,22.94
2022-08-16T18:34:21.088Z,22.84
2022-08-16T18:36:49.585Z,22.71
2022-08-16T18:39:17.206Z,22.57
2022-08-16T18:41:47.329Z,22.67
2022-08-16T18:44:26.806Z,22.59
2022-08-16T18:46:57.443Z,22.37
2022-08-16T18:49:24.905Z,22.54
2022-08-16T18:52:00.682Z,22.40
2022-08-16T18:54:30.705Z,22.51
2022-08-16T18:56:58.854Z,22.50
2022-08-16T18:59:31.136Z,22.46
2022-08-16T19:02:04.158Z,22.41
2022-08-16T19:04:55.938Z,22.27
2022-08-16T19:07:30.561Z,22.42
2022-08-16T19:10:01.322Z,22.40
2022-08-16T19:12:37.910Z,22.38
2022-08-16T19:15:14.462Z,22.35
2022-08-16T19:17:45.950Z,22.36
2022-08-16T19:20:16.252Z,22.32
2022-08-16T19:23:04.367Z,22.17
2022-08-16T19:25:49.206Z,22.27
2022-08-16T19:28:57.821Z,22.26
2022-08-16T19:31:30.430Z,22.25
2022-08-16T19:33:59.814Z,22.14
2022-08-16T19:36:39.834Z,22.21
2022-08-16T19:39:12.521Z,22.11
2022-08-16T19:41:45.979Z,22.23
2022-08-16T19:44:14.458Z,22.24
2022-08-16T19:46:44.986Z,22.12
2022-08-16T19:49:16.558Z,22.26
2022-08-16T19:51:46.719Z,22.26
2022-08-16T19:54:15.365Z,21.93
2022-08-16T19:56:42.988Z,22.18
2022-08-16T19:59:21.515Z,22.10
2022-08-16T20:01:54.108Z,22.11
2022-08-16T20:04:23.825Z,21.70
2022-08-16T20:06:53.205Z,21.99
2022-08-16T20:09:24.556Z,22.02
2022-08-16T20:11:54.137Z,22.06
2022-08-16T20:14:25.090Z,22.05
2022-08-16T20:16:55.378Z,21.87
2022-08-16T20:19:22.935Z,22.05
2022-08-16T20:21:51.532Z,21.88
2022-08-16T20:24:35.921Z,21.80
2022-08-16T20:27:07.093Z,21.99
2022-08-16T20:29:35.886Z,21.79
2022-08-16T20:32:06.500Z,21.86
2022-08-16T20:34:35.030Z,21.89
2022-08-16T20:37:02.508Z,21.99
2022-08-16T20:39:31.150Z,21.72
2022-08-16T20:41:58.811Z,21.99
2022-08-16T20:44:27.026Z,21.98
2022-08-16T20:46:54.450Z,21.70
2022-08-16T20:49:23.735Z,21.87
2022-08-16T20:51:54.831Z,21.62
2022-08-16T20:54:26.096Z,21.85
2022-08-16T20:56:53.598Z,21.82
2022-08-16T20:59:21.520Z,21.70
2022-08-16T21:01:50.655Z,21.80
2022-08-16T21:04:26.039Z,21.69
2022-08-16T21:06:55.888Z,21.81
2022-08-16T21:09:29.286Z,21.78
2022-08-16T21:12:04.121Z,21.77
2022-08-16T21:14:35.297Z,21.72
2022-08-16T21:17:10.201Z,21.74
2022-08-16T21:19:40.516Z,21.71
2022-08-16T21:22:22.364Z,21.60
2022-08-16T21:24:53.817Z,21.06
2022-08-16T21:27:24.849Z,21.27
2022-08-16T21:29:55.692Z,21.63
2022-08-16T21:32:34.941Z,21.66
2022-08-16T21:35:16.420Z,21.63
2022-08-16T21:38:28.116Z,21.51
2022-08-16T21:40:35.502Z,21.63
2022-08-16T21:43:10.532Z,21.02
2022-08-16T21:45:40.311Z,21.60
2022-08-16T21:48:08.924Z,21.23
2022-08-16T21:50:38.776Z,21.38
2022-08-16T21:53:15.948Z,21.53
2022-08-16T21:55:53.847Z,21.46
2022-08-16T21:58:22.014Z,21.47
2022-08-16T22:00:50.413Z,21.42
2022-08-16T22:03:18.915Z,21.53
2022-08-16T22:06:00.093Z,21.51
2022-08-16T22:08:39.550Z,20.94
2022-08-16T22:11:20.131Z,21.42
2022-08-16T22:13:57.393Z,21.28
2022-08-16T22:16:31.584Z,21.25
2022-08-16T22:19:00.744Z,21.41
2022-08-16T22:21:28.318Z,21.32
2022-08-16T22:23:58.653Z,21.35
2022-08-16T22:26:30.357Z,21.33
2022-08-16T22:29:02.664Z,21.35
2022-08-16T22:31:31.283Z,21.17
2022-08-16T22:33:59.119Z,21.35
2022-08-16T22:36:28.390Z,20.83
2022-08-16T22:38:59.136Z,21.25
2022-08-16T22:41:29.122Z,21.31
2022-08-16T22:43:56.872Z,21.10
2022-08-16T22:46:25.290Z,21.33
2022-08-16T22:48:52.783Z,21.31
2022-08-16T22:51:22.218Z,21.13
2022-08-16T22:53:49.755Z,21.16
2022-08-16T22:56:17.882Z,21.33
2022-08-16T22:58:46.096Z,21.31
2022-08-16T23:01:15.556Z,20.98
2022-08-16T23:03:44.023Z,21.14
2022-08-16T23:06:12.747Z,21.15
2022-08-16T23:08:41.834Z,21.31
2022-08-16T23:11:12.676Z,21.01
2022-08-16T23:13:53.168Z,21.34
2022-08-16T23:16:29.209Z,21.31
2022-08-16T23:19:09.304Z,21.29
2022-08-16T23:21:39.260Z,21.29
2022-08-16T23:24:08.394Z,21.27
2022-08-16T23:26:45.995Z,20.94
2022-08-16T23:29:23.556Z,20.98
2022-08-16T23:32:11.087Z,21.15
2022-08-16T23:34:39.105Z,21.19
2022-08-16T23:37:06.781Z,21.18
2022-08-16T23:39:36.339Z,21.03
2022-08-16T23:42:12.074Z,21.14
2022-08-16T23:44:56.003Z,20.94
2022-08-16T23:47:26.514Z,21.12
2022-08-16T23:50:01.796Z,21.15
2022-08-16T23:52:54.025Z,21.13
2022-08-16T23:55:19.677Z,21.01
2022-08-16T23:57:47.504Z,20.85
